Time;durP1;ratioP1;P1;durP2;ratioP2;P2;SDS_P1;SDS_P2;PMS_P1;PMS_P2;Temp;Humidity;BMP_temperature;BMP_pressure;BME280_temperature;BME280_humidity;BME280_pressure;Samples;Min_cycle;Max_cycle;Signal;HPM_P1;HPM_P2
2022/02/08 00:00:59;;;;;;;3.53;2.65;;;;;;;;;;6095787;23;20484;-80
2022/02/08 00:03:28;;;;;;;2.20;2.10;;;;;;;;;;6120761;23;20445;-80
2022/02/08 00:08:44;;;;;;;2.10;1.92;;;;;;;;;;6149046;23;20053;-80
2022/02/08 00:11:20;;;;;;;3.88;2.85;;;;;;;;;;6146973;23;20357;-80
2022/02/08 00:13:57;;;;;;;2.38;2.08;;;;;;;;;;6156556;23;20040;-81
2022/02/08 00:16:25;;;;;;;3.70;2.25;;;;;;;;;;6150865;23;20022;-81
2022/02/08 00:18:53;;;;;;;2.50;2.30;;;;;;;;;;6156647;23;20025;-79
2022/02/08 00:21:21;;;;;;;8.45;2.60;;;;;;;;;;6120937;23;20029;-80
2022/02/08 00:23:49;;;;;;;3.00;2.80;;;;;;;;;;6126802;23;20033;-80
2022/02/08 00:26:18;;;;;;;3.47;2.42;;;;;;;;;;6157377;23;20325;-79
2022/02/08 00:28:46;;;;;;;3.90;2.88;;;;;;;;;;6147956;23;20021;-80
2022/02/08 00:31:15;;;;;;;1.83;1.70;;;;;;;;;;6152984;23;20022;-80
2022/02/08 00:33:43;;;;;;;6.18;2.83;;;;;;;;;;6157147;23;20018;-74
2022/02/08 00:36:11;;;;;;;2.70;2.20;;;;;;;;;;6151550;23;20026;-74
2022/02/08 00:38:39;;;;;;;2.45;1.85;;;;;;;;;;6156984;23;20021;-74
2022/02/08 00:41:08;;;;;;;1.90;1.75;;;;;;;;;;6147391;23;20032;-74
2022/02/08 00:43:53;;;;;;;2.22;1.98;;;;;;;;;;6153015;23;20029;-74
2022/02/08 00:46:36;;;;;;;1.85;1.75;;;;;;;;;;6130889;23;20033;-74
2022/02/08 00:49:07;;;;;;;2.63;2.42;;;;;;;;;;6121613;23;20029;-80
2022/02/08 00:51:45;;;;;;;2.45;2.15;;;;;;;;;;6120745;23;20028;-80
2022/02/08 00:54:17;;;;;;;2.15;1.58;;;;;;;;;;6131190;23;20013;-80
2022/02/08 00:56:47;;;;;;;4.85;2.15;;;;;;;;;;6122803;23;20037;-80
2022/02/08 00:59:16;;;;;;;6.20;3.63;;;;;;;;;;6127489;23;20028;-80
2022/02/08 01:01:45;;;;;;;2.05;1.95;;;;;;;;;;6096499;23;20022;-79
2022/02/08 01:04:14;;;;;;;8.00;3.95;;;;;;;;;;6125094;23;20030;-79
2022/02/08 01:06:43;;;;;;;2.35;1.80;;;;;;;;;;6156893;23;20024;-80
2022/02/08 01:09:15;;;;;;;3.70;3.40;;;;;;;;;;6146849;23;20445;-81
2022/02/08 01:11:46;;;;;;;5.68;2.58;;;;;;;;;;6128043;23;20021;-80
2022/02/08 01:14:15;;;;;;;4.57;2.80;;;;;;;;;;6132102;23;20025;-81
2022/02/08 01:16:45;;;;;;;5.30;2.13;;;;;;;;;;6148696;23;20040;-81
2022/02/08 01:19:15;;;;;;;4.70;2.30;;;;;;;;;;6130371;23;20436;-80
2022/02/08 01:21:43;;;;;;;2.22;2.00;;;;;;;;;;6122773;23;20021;-80
2022/02/08 01:24:11;;;;;;;1.40;1.33;;;;;;;;;;6153024;23;20030;-80
2022/02/08 01:26:54;;;;;;;5.95;2.13;;;;;;;;;;6132864;23;20024;-80
2022/02/08 01:29:28;;;;;;;2.85;2.65;;;;;;;;;;6120508;23;20029;-80
2022/02/08 01:32:11;;;;;;;2.67;2.47;;;;;;;;;;6127230;23;20021;-80
2022/02/08 01:34:58;;;;;;;4.25;2.35;;;;;;;;;;6132999;23;20784;-80
2022/02/08 01:37:42;;;;;;;2.58;2.13;;;;;;;;;;6081470;23;20021;-80
2022/02/08 01:50:34;;;;;;;2.45;2.22;;;;;;;;;;6132002;23;20013;-81
2022/02/08 01:53:04;;;;;;;5.32;3.95;;;;;;;;;;6096977;23;20029;-81
2022/02/08 01:55:35;;;;;;;4.63;1.50;;;;;;;;;;6097855;23;20026;-80
2022/02/08 01:58:20;;;;;;;2.75;2.03;;;;;;;;;;6131371;23;20353;-81
2022/02/08 02:00:53;;;;;;;1.55;1.45;;;;;;;;;;6123594;23;20017;-81
2022/02/08 02:03:23;;;;;;;6.78;2.45;;;;;;;;;;6156219;23;20021;-81
2022/02/08 02:05:54;;;;;;;3.15;2.08;;;;;;;;;;6132947;23;20014;-81
2022/02/08 02:08:24;;;;;;;2.00;1.90;;;;;;;;;;6151310;23;20037;-81
2022/02/08 02:10:56;;;;;;;3.85;2.70;;;;;;;;;;6119049;23;20022;-81
2022/02/08 02:13:41;;;;;;;4.45;2.20;;;;;;;;;;6126311;23;20437;-81
2022/02/08 02:16:19;;;;;;;7.93;2.30;;;;;;;;;;6121483;23;20022;-81
2022/02/08 02:18:48;;;;;;;1.60;1.50;;;;;;;;;;6127307;23;20025;-81
2022/02/08 02:21:22;;;;;;;4.75;2.55;;;;;;;;;;6116842;23;20457;-81
2022/02/08 02:23:51;;;;;;;4.80;3.17;;;;;;;;;;6091464;23;20481;-81
2022/02/08 02:26:24;;;;;;;7.80;2.08;;;;;;;;;;6092922;23;20018;-81
2022/02/08 02:28:55;;;;;;;;;;;;;;;;;;6116150;23;20436;-81
2022/02/08 02:31:24;;;;;;;4.13;2.58;;;;;;;;;;6092419;23;19921;-81
2022/02/08 02:33:52;;;;;;;2.33;2.22;;;;;;;;;;6127517;23;20025;-80
2022/02/08 02:36:20;;;;;;;2.00;1.88;;;;;;;;;;6091937;23;20571;-81
2022/02/08 02:38:49;;;;;;;6.78;2.65;;;;;;;;;;6126497;23;20025;-81
2022/02/08 02:41:19;;;;;;;1.65;1.58;;;;;;;;;;6116125;23;20022;-81
2022/02/08 02:43:50;;;;;;;5.65;1.23;;;;;;;;;;6098320;23;20645;-81
2022/02/08 02:46:21;;;;;;;4.47;4.07;;;;;;;;;;6127172;23;20033;-81
2022/02/08 02:48:50;;;;;;;5.68;3.38;;;;;;;;;;6091600;23;20060;-81
2022/02/08 02:51:23;;;;;;;3.72;2.03;;;;;;;;;;6116740;23;20022;-81
2022/02/08 02:53:54;;;;;;;3.08;1.95;;;;;;;;;;6117289;23;20022;-81
2022/02/08 02:56:23;;;;;;;8.40;3.15;;;;;;;;;;6120466;23;20026;-81
2022/02/08 02:59:01;;;;;;;2.45;1.98;;;;;;;;;;6115492;23;20453;-80
2022/02/08 03:01:38;;;;;;;5.57;2.38;;;;;;;;;;6092458;23;20029;-81
2022/02/08 03:04:26;;;;;;;1.70;1.60;;;;;;;;;;6116593;23;20527;-80
2022/02/08 03:18:33;;;;;;;6.40;2.35;;;;;;;;;;6126367;23;20021;-81
2022/02/08 03:21:16;;;;;;;8.13;3.30;;;;;;;;;;6092302;23;20030;-81
2022/02/08 03:23:47;;;;;;;1.52;1.45;;;;;;;;;;6124344;23;20029;-81
2022/02/08 03:26:17;;;;;;;2.20;2.10;;;;;;;;;;6093083;23;20349;-81
2022/02/08 03:28:54;;;;;;;2.05;1.95;;;;;;;;;;6094411;23;20484;-81
2022/02/08 03:31:28;;;;;;;2.35;1.73;;;;;;;;;;6115978;23;20030;-82
2022/02/08 03:33:57;;;;;;;7.28;5.03;;;;;;;;;;6102722;23;20429;-81
2022/02/08 03:36:26;;;;;;;2.53;2.33;;;;;;;;;;6091528;23;20335;-80
2022/02/08 03:39:19;;;;;;;4.43;3.03;;;;;;;;;;6125027;23;20021;-80
2022/02/08 03:42:08;;;;;;;1.92;1.83;;;;;;;;;;6118200;23;20018;-80
2022/02/08 03:44:44;;;;;;;7.00;2.35;;;;;;;;;;6118070;23;20033;-81
2022/02/08 03:47:14;;;;;;;3.92;2.15;;;;;;;;;;6124410;23;20729;-87
2022/02/08 03:49:44;;;;;;;5.43;1.77;;;;;;;;;;6092632;23;20021;-86
2022/02/08 03:52:13;;;;;;;3.53;2.63;;;;;;;;;;6091046;23;20021;-85
2022/02/08 03:54:45;;;;;;;2.25;2.15;;;;;;;;;;6103258;23;20021;-87
2022/02/08 03:57:16;;;;;;;3.47;1.70;;;;;;;;;;6092227;23;20021;-86
2022/02/08 03:59:47;;;;;;;1.70;1.60;;;;;;;;;;6121950;23;20033;-87
2022/02/08 04:02:42;;;;;;;4.22;2.63;;;;;;;;;;6117086;23;20455;-88
2022/02/08 04:08:13;;;;;;;1.90;1.80;;;;;;;;;;6069815;23;20040;-86
2022/02/08 04:10:44;;;;;;;2.95;1.83;;;;;;;;;;6139424;23;20024;-86
2022/02/08 04:13:24;;;;;;;5.85;1.63;;;;;;;;;;6120713;23;20033;-88
2022/02/08 04:45:47;;;;;;;2.80;2.17;;;;;;;;;;6158014;23;20013;-86
2022/02/08 04:50:50;;;;;;;8.80;5.40;;;;;;;;;;6160276;23;20021;-87
2022/02/08 04:53:29;;;;;;;1.45;1.45;;;;;;;;;;6149235;23;20587;-87
2022/02/08 04:56:51;;;;;;;1.40;1.20;;;;;;;;;;6154376;23;20038;-87
2022/02/08 04:59:16;;;;;;;1.50;1.30;;;;;;;;;;6131110;23;20720;-81
2022/02/08 05:27:54;;;;;;;1.95;1.85;;;;;;;;;;6158779;23;20018;-80
2022/02/08 05:35:46;;;;;;;4.80;2.05;;;;;;;;;;6148368;23;20025;-81
2022/02/08 05:49:10;;;;;;;2.00;1.67;;;;;;;;;;6149227;23;20365;-81
2022/02/08 05:51:59;;;;;;;7.68;1.63;;;;;;;;;;6153586;23;20492;-82
2022/02/08 05:54:27;;;;;;;1.35;1.25;;;;;;;;;;6160027;23;20021;-83
2022/02/08 05:56:55;;;;;;;8.15;1.90;;;;;;;;;;6151244;23;20030;-81
2022/02/08 05:59:23;;;;;;;2.08;1.98;;;;;;;;;;6155600;23;20021;-83
2022/02/08 06:01:52;;;;;;;1.15;1.15;;;;;;;;;;6160994;23;20021;-85
2022/02/08 06:04:34;;;;;;;3.80;1.95;;;;;;;;;;6099751;23;20029;-84
2022/02/08 06:07:02;;;;;;;1.38;1.38;;;;;;;;;;6158337;23;20025;-82
2022/02/08 06:09:30;;;;;;;1.25;1.25;;;;;;;;;;6157285;23;20028;-85
2022/02/08 06:11:58;;;;;;;3.20;1.55;;;;;;;;;;6154121;23;20022;-83
2022/02/08 06:14:28;;;;;;;3.72;2.05;;;;;;;;;;6158905;23;20024;-81
2022/02/08 06:16:57;;;;;;;2.17;2.03;;;;;;;;;;6124139;23;20025;-84
2022/02/08 06:19:25;;;;;;;9.25;1.67;;;;;;;;;;6156753;23;20540;-84
2022/02/08 06:21:55;;;;;;;1.63;1.52;;;;;;;;;;6134442;23;20028;-84
2022/02/08 06:24:28;;;;;;;2.35;1.60;;;;;;;;;;6121943;23;20365;-84
2022/02/08 06:27:04;;;;;;;2.22;1.88;;;;;;;;;;6158529;23;20545;-85
2022/02/08 06:29:32;;;;;;;4.95;2.28;;;;;;;;;;6121555;23;20021;-86
2022/02/08 06:32:00;;;;;;;7.07;1.52;;;;;;;;;;6153639;23;20469;-85
2022/02/08 06:34:31;;;;;;;1.30;1.30;;;;;;;;;;6158778;23;20400;-86
2022/02/08 06:37:09;;;;;;;1.70;1.27;;;;;;;;;;6148058;23;20021;-85
2022/02/08 06:39:37;;;;;;;1.85;1.75;;;;;;;;;;6122264;23;20029;-84
2022/02/08 06:42:08;;;;;;;1.92;1.83;;;;;;;;;;6158356;23;20024;-87
2022/02/08 06:44:38;;;;;;;2.22;1.20;;;;;;;;;;6120402;23;20029;-85
2022/02/08 06:47:06;;;;;;;4.63;1.83;;;;;;;;;;6130780;23;20017;-85
2022/02/08 06:49:34;;;;;;;3.05;2.15;;;;;;;;;;6157802;23;20018;-85
2022/02/08 06:52:04;;;;;;;3.40;2.53;;;;;;;;;;6097323;23;20025;-86
2022/02/08 06:54:32;;;;;;;1.83;1.73;;;;;;;;;;6132055;23;20025;-85
2022/02/08 06:57:01;;;;;;;12.02;2.88;;;;;;;;;;6121226;23;20694;-84
2022/02/08 06:59:36;;;;;;;2.88;1.88;;;;;;;;;;6120677;23;20330;-85
2022/02/08 07:02:07;;;;;;;7.03;1.52;;;;;;;;;;6108020;23;20349;-85
2022/02/08 07:04:37;;;;;;;2.03;1.92;;;;;;;;;;6098015;23;20029;-85
2022/02/08 07:07:07;;;;;;;2.13;1.67;;;;;;;;;;6119482;23;20021;-86
2022/02/08 07:09:35;;;;;;;1.63;1.52;;;;;;;;;;6153678;23;20022;-84
2022/02/08 07:12:03;;;;;;;2.13;1.63;;;;;;;;;;6149700;23;20030;-86
2022/02/08 07:14:32;;;;;;;1.73;1.58;;;;;;;;;;6156711;23;20024;-85
2022/02/08 07:17:01;;;;;;;1.38;1.38;;;;;;;;;;6121116;23;20025;-88
2022/02/08 07:19:29;;;;;;;5.28;2.22;;;;;;;;;;6120417;23;20021;-86
2022/02/08 07:21:58;;;;;;;1.88;1.27;;;;;;;;;;6148700;23;20029;-84
2022/02/08 07:24:27;;;;;;;1.45;1.35;;;;;;;;;;6098766;23;20029;-82
2022/02/08 07:26:55;;;;;;;1.75;1.63;;;;;;;;;;6096468;23;20493;-83
2022/02/08 07:29:27;;;;;;;3.05;2.75;;;;;;;;;;6157623;23;20751;-84
2022/02/08 07:31:59;;;;;;;1.20;1.20;;;;;;;;;;6127278;23;20444;-82
2022/02/08 07:34:39;;;;;;;4.82;1.92;;;;;;;;;;6133022;23;20028;-82
2022/02/08 07:37:17;;;;;;;0.80;0.80;;;;;;;;;;6123254;23;20029;-82
2022/02/08 07:39:51;;;;;;;4.30;1.90;;;;;;;;;;6128212;23;20032;-83
2022/02/08 07:42:24;;;;;;;2.35;2.15;;;;;;;;;;6132301;23;20714;-84
2022/02/08 07:44:55;;;;;;;4.07;2.25;;;;;;;;;;6095646;23;20634;-82
2022/02/08 07:47:26;;;;;;;1.48;1.42;;;;;;;;;;6096456;23;20036;-83
2022/02/08 07:49:54;;;;;;;2.60;1.35;;;;;;;;;;6129468;23;20324;-83
2022/02/08 07:52:22;;;;;;;3.28;1.38;;;;;;;;;;6096437;23;20472;-83
2022/02/08 07:54:50;;;;;;;1.63;1.55;;;;;;;;;;6131819;23;20014;-83
2022/02/08 07:57:18;;;;;;;10.80;3.50;;;;;;;;;;6145844;23;20040;-83
2022/02/08 07:59:46;;;;;;;3.15;1.35;;;;;;;;;;6151371;23;20029;-82
2022/02/08 08:02:16;;;;;;;2.08;1.35;;;;;;;;;;6120271;23;20021;-82
2022/02/08 08:04:46;;;;;;;1.58;1.48;;;;;;;;;;6096332;23;20465;-82
2022/02/08 08:07:20;;;;;;;4.68;1.70;;;;;;;;;;6122199;23;20461;-84
2022/02/08 08:09:48;;;;;;;1.98;1.80;;;;;;;;;;6154020;23;20029;-84
2022/02/08 08:12:16;;;;;;;1.65;1.60;;;;;;;;;;6121254;23;20037;-84
2022/02/08 08:14:46;;;;;;;2.83;1.08;;;;;;;;;;6131500;23;20017;-85
2022/02/08 08:19:57;;;;;;;1.38;1.35;;;;;;;;;;6153431;23;19928;-83
2022/02/08 08:22:28;;;;;;;1.48;1.00;;;;;;;;;;6096863;23;20021;-82
2022/02/08 08:24:59;;;;;;;2.15;1.58;;;;;;;;;;6121225;23;20029;-85
2022/02/08 08:27:29;;;;;;;1.67;1.58;;;;;;;;;;6097874;23;20033;-84
2022/02/08 08:29:57;;;;;;;2.15;1.10;;;;;;;;;;6100460;23;20017;-83
2022/02/08 08:32:25;;;;;;;2.47;1.00;;;;;;;;;;6121366;23;20025;-83
2022/02/08 08:34:54;;;;;;;1.50;1.30;;;;;;;;;;6096566;23;20706;-78
2022/02/08 08:37:22;;;;;;;1.38;1.38;;;;;;;;;;6131544;23;20017;-81
2022/02/08 08:39:52;;;;;;;2.38;1.20;;;;;;;;;;6152289;23;20052;-86
2022/02/08 08:42:43;;;;;;;2.17;1.45;;;;;;;;;;6121822;23;20024;-86
2022/02/08 08:53:35;;;;;;;1.83;1.52;;;;;;;;;;6052348;23;20029;-86
2022/02/08 08:56:04;;;;;;;1.83;1.63;;;;;;;;;;6125422;23;20033;-85
2022/02/08 08:58:36;;;;;;;1.30;0.95;;;;;;;;;;6097024;23;20361;-86
2022/02/08 09:01:06;;;;;;;1.58;1.48;;;;;;;;;;6097046;23;20449;-87
2022/02/08 09:03:36;;;;;;;0.88;0.88;;;;;;;;;;6096813;23;20017;-84
2022/02/08 09:06:27;;;;;;;1.00;1.00;;;;;;;;;;6157677;23;20433;-86
2022/02/08 09:08:55;;;;;;;6.22;2.80;;;;;;;;;;6095959;23;20029;-84
2022/02/08 09:14:20;;;;;;;;;;;;;;;;;;6158090;23;20017;-83
2022/02/08 09:16:54;;;;;;;3.75;1.38;;;;;;;;;;6097008;23;19920;-84
2022/02/08 09:20:03;;;;;;;3.28;2.78;;;;;;;;;;6119658;23;20025;-83
2022/02/08 09:22:49;;;;;;;11.02;2.45;;;;;;;;;;6131253;23;20028;-84
2022/02/08 09:28:20;;;;;;;1.75;1.65;;;;;;;;;;6152339;23;19920;-83
2022/02/08 09:31:01;;;;;;;5.55;1.38;;;;;;;;;;6131042;23;20022;-83
2022/02/08 09:33:31;;;;;;;5.28;3.63;;;;;;;;;;6082007;23;20029;-81
2022/02/08 09:36:01;;;;;;;2.95;1.50;;;;;;;;;;6154561;23;20507;-84
2022/02/08 09:38:38;;;;;;;2.45;2.05;;;;;;;;;;6099760;23;20025;-83
2022/02/08 09:41:06;;;;;;;5.22;1.98;;;;;;;;;;6123050;23;20479;-83
2022/02/08 09:43:35;;;;;;;6.10;3.38;;;;;;;;;;6155016;23;20024;-83
2022/02/08 09:46:09;;;;;;;2.13;1.85;;;;;;;;;;6098809;23;20018;-83
2022/02/08 09:48:42;;;;;;;3.47;1.88;;;;;;;;;;6097649;23;20025;-83
2022/02/08 09:51:12;;;;;;;2.38;2.17;;;;;;;;;;6157209;23;20028;-83
2022/02/08 09:53:42;;;;;;;2.95;1.30;;;;;;;;;;6132917;23;20017;-83
2022/02/08 09:56:12;;;;;;;2.05;1.92;;;;;;;;;;6126761;23;20036;-76
2022/02/08 09:58:40;;;;;;;3.38;2.83;;;;;;;;;;6132363;23;20030;-76
2022/02/08 10:01:13;;;;;;;1.27;1.17;;;;;;;;;;6121942;23;20025;-77
2022/02/08 10:03:56;;;;;;;1.13;1.13;;;;;;;;;;6121555;23;20018;-76
2022/02/08 10:06:27;;;;;;;2.78;1.50;;;;;;;;;;6098054;23;20021;-77
2022/02/08 10:08:59;;;;;;;1.67;1.50;;;;;;;;;;6149544;23;20479;-76
2022/02/08 10:11:41;;;;;;;1.95;1.50;;;;;;;;;;6126658;23;20018;-77
2022/02/08 10:22:52;;;;;;;6.28;1.05;;;;;;;;;;6129193;23;20018;-76
2022/02/08 10:25:45;;;;;;;1.23;1.10;;;;;;;;;;6068161;23;20026;-76
2022/02/08 10:28:27;;;;;;;2.50;1.20;;;;;;;;;;6111938;23;20026;-77
2022/02/08 10:31:08;;;;;;;1.67;1.17;;;;;;;;;;6119275;23;20025;-77
2022/02/08 10:39:28;;;;;;;1.17;1.08;;;;;;;;;;6126831;23;20021;-76
2022/02/08 10:41:56;;;;;;;2.75;0.90;;;;;;;;;;6092952;23;20029;-76
2022/02/08 10:44:33;;;;;;;1.30;1.30;;;;;;;;;;6115824;23;20306;-76
2022/02/08 10:47:02;;;;;;;1.85;1.00;;;;;;;;;;6092347;23;20026;-76
2022/02/08 10:49:33;;;;;;;2.70;1.90;;;;;;;;;;6118636;23;20021;-76
2022/02/08 10:52:05;;;;;;;1.25;1.25;;;;;;;;;;6123747;23;20033;-76
2022/02/08 10:54:43;;;;;;;1.88;1.13;;;;;;;;;;6126876;23;20374;-77
2022/02/08 10:57:17;;;;;;;1.20;1.10;;;;;;;;;;6116835;23;20029;-76
2022/02/08 10:59:55;;;;;;;1.60;1.50;;;;;;;;;;6124019;23;20199;-76
2022/02/08 11:02:29;;;;;;;1.17;1.17;;;;;;;;;;6092742;23;20494;-76
2022/02/08 11:07:46;;;;;;;1.20;1.10;;;;;;;;;;6125980;23;20025;-77
2022/02/08 11:10:33;;;;;;;1.90;1.27;;;;;;;;;;6114728;23;20037;-77
2022/02/08 11:14:07;;;;;;;4.35;2.50;;;;;;;;;;6115417;23;20030;-78
2022/02/08 11:16:12;;;;;;;7.20;1.40;;;;;;;;;;6100635;23;20033;-79
2022/02/08 11:19:02;;;;;;;2.30;1.08;;;;;;;;;;6127770;23;20492;-78
2022/02/08 11:21:46;;;;;;;1.40;1.27;;;;;;;;;;6073546;23;20026;-79
2022/02/08 11:24:24;;;;;;;1.38;1.15;;;;;;;;;;6114988;23;20026;-79
2022/02/08 11:27:01;;;;;;;12.18;2.38;;;;;;;;;;6116477;23;20022;-80
2022/02/08 11:29:39;;;;;;;1.95;1.63;;;;;;;;;;6098713;23;20045;-79
2022/02/08 11:55:22;;;;;;;1.80;1.55;;;;;;;;;;6115883;23;20611;-78
2022/02/08 12:00:35;;;;;;;1.15;1.15;;;;;;;;;;6107407;23;20033;-80
2022/02/08 12:06:23;;;;;;;1.48;1.05;;;;;;;;;;6116414;23;20476;-78
2022/02/08 12:08:58;;;;;;;1.40;1.35;;;;;;;;;;6115484;23;20030;-81
2022/02/08 12:32:09;;;;;;;1.15;1.00;;;;;;;;;;6050803;23;20030;-84
2022/02/08 12:34:48;;;;;;;1.40;1.10;;;;;;;;;;6093027;23;20476;-85
2022/02/08 14:04:27;;;;;;;0.63;0.60;;;;;;;;;;6123263;23;20026;-81
2022/02/08 14:09:52;;;;;;;0.73;0.73;;;;;;;;;;6103094;23;20348;-83
2022/02/08 14:13:30;;;;;;;1.67;0.70;;;;;;;;;;6100609;23;20358;-82
2022/02/08 14:15:44;;;;;;;0.93;0.52;;;;;;;;;;6077350;23;20030;-84
2022/02/08 14:48:51;;;;;;;0.75;0.75;;;;;;;;;;6089161;23;20030;-81
2022/02/08 15:10:49;;;;;;;0.73;0.60;;;;;;;;;;6083255;23;20476;-84
2022/02/08 15:13:20;;;;;;;0.75;0.73;;;;;;;;;;6091572;23;20041;-84
2022/02/08 15:18:44;;;;;;;0.50;0.50;;;;;;;;;;6091846;23;20033;-82
2022/02/08 15:21:19;;;;;;;0.60;0.60;;;;;;;;;;6092000;23;20034;-83
2022/02/08 15:23:49;;;;;;;0.50;0.50;;;;;;;;;;6121520;23;20030;-82
2022/02/08 15:26:17;;;;;;;0.70;0.70;;;;;;;;;;6115636;23;20408;-81
2022/02/08 15:28:45;;;;;;;0.43;0.43;;;;;;;;;;6119062;23;20034;-81
2022/02/08 15:31:14;;;;;;;0.50;0.50;;;;;;;;;;6123751;23;20025;-84
2022/02/08 15:33:44;;;;;;;0.50;0.50;;;;;;;;;;6091815;23;20018;-84
2022/02/08 15:36:15;;;;;;;0.77;0.77;;;;;;;;;;6114643;23;20165;-83
2022/02/08 15:38:53;;;;;;;0.93;0.93;;;;;;;;;;6125262;23;20021;-82
2022/02/08 15:41:22;;;;;;;0.45;0.45;;;;;;;;;;6116807;23;20029;-82
2022/02/08 15:43:51;;;;;;;0.47;0.47;;;;;;;;;;6114843;23;20037;-82
2022/02/08 15:46:24;;;;;;;0.60;0.60;;;;;;;;;;6115836;23;20022;-82
2022/02/08 15:48:53;;;;;;;0.50;0.50;;;;;;;;;;6091010;23;20056;-82
2022/02/08 16:07:16;;;;;;;0.50;0.50;;;;;;;;;;6125983;23;20013;-80
2022/02/08 16:09:50;;;;;;;0.63;0.63;;;;;;;;;;6133313;23;20025;-80
2022/02/08 16:18:11;;;;;;;0.60;0.60;;;;;;;;;;6148478;23;20029;-80
2022/02/08 16:20:21;;;;;;;0.50;0.50;;;;;;;;;;6071522;23;20088;-80
2022/02/08 16:25:50;;;;;;;0.50;0.50;;;;;;;;;;6080573;23;20026;-79
2022/02/08 16:46:07;;;;;;;1.00;0.80;;;;;;;;;;6148473;23;20044;-79
2022/02/08 16:53:02;;;;;;;0.57;0.57;;;;;;;;;;6150153;23;20037;-77
2022/02/08 16:56:02;;;;;;;0.98;0.70;;;;;;;;;;6130148;23;20021;-77
2022/02/08 17:01:28;;;;;;;0.90;0.90;;;;;;;;;;6121244;23;20033;-77
2022/02/08 17:03:58;;;;;;;1.50;1.23;;;;;;;;;;6153617;23;20080;-77
2022/02/08 17:06:27;;;;;;;0.88;0.80;;;;;;;;;;6158916;23;20023;-77
2022/02/08 17:09:07;;;;;;;0.70;0.70;;;;;;;;;;6145971;23;20045;-77
2022/02/08 17:11:44;;;;;;;2.85;1.15;;;;;;;;;;6155098;23;20021;-77
2022/02/08 17:14:42;;;;;;;0.63;0.63;;;;;;;;;;6157975;23;20014;-77
2022/02/08 17:34:28;;;;;;;2.05;1.83;;;;;;;;;;6153620;23;20036;-77
2022/02/08 17:45:12;;;;;;;2.30;0.90;;;;;;;;;;6150233;23;20072;-78
2022/02/08 17:47:45;;;;;;;0.95;0.95;;;;;;;;;;6148582;23;20056;-78
2022/02/08 17:50:15;;;;;;;1.05;0.70;;;;;;;;;;6124096;23;20028;-77
2022/02/08 17:52:47;;;;;;;1.00;0.90;;;;;;;;;;6122795;23;20452;-78
2022/02/08 17:55:20;;;;;;;1.55;1.20;;;;;;;;;;6148384;23;20021;-77
2022/02/08 17:57:52;;;;;;;1.70;1.60;;;;;;;;;;6121664;23;20443;-77
2022/02/08 18:00:22;;;;;;;1.45;1.15;;;;;;;;;;6152094;23;20037;-78
2022/02/08 18:02:53;;;;;;;1.70;1.00;;;;;;;;;;6133042;23;20017;-77
2022/02/08 18:05:26;;;;;;;2.13;2.03;;;;;;;;;;6122838;23;20025;-78
2022/02/08 18:07:58;;;;;;;3.90;1.67;;;;;;;;;;6148563;23;20392;-78
2022/02/08 18:10:32;;;;;;;2.60;1.05;;;;;;;;;;6148764;23;20025;-78
2022/02/08 18:13:03;;;;;;;1.42;0.90;;;;;;;;;;6149957;23;20741;-79
2022/02/08 18:15:38;;;;;;;1.08;0.70;;;;;;;;;;6099356;23;20113;-80
2022/02/08 18:18:30;;;;;;;;;;;;;;;;;;6097821;23;20030;-80
2022/02/08 18:21:09;;;;;;;1.92;0.70;;;;;;;;;;6149517;23;19920;-79
2022/02/08 19:07:43;;;;;;;1.20;1.20;;;;;;;;;;6121709;23;20484;-79
2022/02/08 19:13:26;;;;;;;1.08;1.08;;;;;;;;;;6119001;23;20046;-79
2022/02/08 19:23:35;;;;;;;;;;;;;;;;;;6125517;23;20036;-79
2022/02/08 19:26:04;;;;;;;1.10;1.10;;;;;;;;;;6128908;23;20272;-80
2022/02/08 19:28:32;;;;;;;1.60;1.50;;;;;;;;;;6120566;23;20041;-81
2022/02/08 19:31:00;;;;;;;2.33;2.15;;;;;;;;;;6127685;23;20014;-77
2022/02/08 19:33:29;;;;;;;2.55;1.50;;;;;;;;;;6127745;23;20029;-76
2022/02/08 19:35:58;;;;;;;1.48;1.02;;;;;;;;;;6114480;23;20026;-81
2022/02/08 19:38:27;;;;;;;1.33;1.23;;;;;;;;;;6124538;23;20014;-80
2022/02/08 19:40:55;;;;;;;1.23;1.15;;;;;;;;;;6092101;23;20037;-81
2022/02/08 19:43:24;;;;;;;2.83;1.38;;;;;;;;;;6122432;23;20022;-81
2022/02/08 19:45:52;;;;;;;2.00;1.80;;;;;;;;;;6128781;23;20021;-81
2022/02/08 19:48:20;;;;;;;1.10;1.10;;;;;;;;;;6120295;23;20030;-81
2022/02/08 19:50:49;;;;;;;1.45;1.42;;;;;;;;;;6128905;23;20025;-81
2022/02/08 19:53:17;;;;;;;1.38;1.02;;;;;;;;;;6118447;23;20639;-81
2022/02/08 19:58:22;;;;;;;0.77;0.77;;;;;;;;;;6127234;23;20021;-81
2022/02/08 20:01:27;;;;;;;1.13;1.02;;;;;;;;;;6120607;23;20026;-80
2022/02/08 20:03:54;;;;;;;19.10;3.75;;;;;;;;;;6114053;23;20342;-80
2022/02/08 20:06:23;;;;;;;1.52;1.42;;;;;;;;;;6127177;23;20010;-81
2022/02/08 20:08:51;;;;;;;1.95;1.00;;;;;;;;;;6118397;23;20366;-80
2022/02/08 20:11:21;;;;;;;1.48;1.38;;;;;;;;;;6144796;23;20029;-78
2022/02/08 20:13:55;;;;;;;2.05;1.42;;;;;;;;;;6131297;23;20018;-80
2022/02/08 20:16:27;;;;;;;3.15;1.75;;;;;;;;;;6150206;23;20029;-80
2022/02/08 20:19:01;;;;;;;6.40;2.00;;;;;;;;;;6155928;23;20074;-80
2022/02/08 20:21:30;;;;;;;;;;;;;;;;;;6157683;23;20709;-80
2022/02/08 20:24:02;;;;;;;2.67;2.47;;;;;;;;;;6120089;23;19931;-80
2022/02/08 20:26:46;;;;;;;3.70;2.40;;;;;;;;;;6156910;23;20017;-80
2022/02/08 20:29:21;;;;;;;1.77;1.50;;;;;;;;;;6146385;23;20033;-80
2022/02/08 20:31:50;;;;;;;2.40;1.65;;;;;;;;;;6120911;23;20029;-79
2022/02/08 20:34:19;;;;;;;3.25;2.35;;;;;;;;;;6097466;23;20033;-79
2022/02/08 20:36:48;;;;;;;6.97;2.58;;;;;;;;;;6120479;23;20035;-79
2022/02/08 20:39:17;;;;;;;2.53;1.88;;;;;;;;;;6151693;23;20741;-80
2022/02/08 20:41:46;;;;;;;2.05;1.63;;;;;;;;;;6156856;23;20022;-79
2022/02/08 20:44:16;;;;;;;12.77;2.10;;;;;;;;;;6150387;23;20029;-80
2022/02/08 20:46:53;;;;;;;2.40;1.70;;;;;;;;;;6157399;23;20018;-80
2022/02/08 20:49:22;;;;;;;8.98;3.60;;;;;;;;;;6120621;23;20028;-79
2022/02/08 20:51:52;;;;;;;7.28;3.92;;;;;;;;;;6120695;23;20032;-80
2022/02/08 20:54:26;;;;;;;6.95;1.90;;;;;;;;;;6155867;23;20017;-80
2022/02/08 20:57:02;;;;;;;3.00;2.78;;;;;;;;;;6148223;23;20457;-80
2022/02/08 20:59:32;;;;;;;5.22;4.72;;;;;;;;;;6095063;23;20021;-80
2022/02/08 21:02:17;;;;;;;6.57;3.30;;;;;;;;;;6121486;23;20021;-80
2022/02/08 21:05:28;;;;;;;6.78;3.03;;;;;;;;;;6095652;23;20025;-79
2022/02/08 21:07:37;;;;;;;8.57;2.70;;;;;;;;;;6143466;23;20018;-80
2022/02/08 21:10:05;;;;;;;2.63;2.42;;;;;;;;;;6127110;23;20053;-80
2022/02/08 21:12:52;;;;;;;3.83;1.98;;;;;;;;;;6150646;23;20030;-80
2022/02/08 21:15:21;;;;;;;5.22;3.17;;;;;;;;;;6128433;23;20377;-80
2022/02/08 21:17:49;;;;;;;3.20;2.33;;;;;;;;;;6157621;23;20020;-79
2022/02/08 21:20:17;;;;;;;3.17;2.35;;;;;;;;;;6151032;23;20026;-80
2022/02/08 21:22:46;;;;;;;3.65;2.35;;;;;;;;;;6157083;23;20404;-80
2022/02/08 21:25:14;;;;;;;4.35;3.30;;;;;;;;;;6147094;23;20026;-80
2022/02/08 21:27:49;;;;;;;4.72;2.40;;;;;;;;;;6152791;23;20022;-80
2022/02/08 21:30:29;;;;;;;4.90;3.42;;;;;;;;;;6158459;23;20794;-80
2022/02/08 21:45:55;;;;;;;3.75;3.15;;;;;;;;;;6121811;23;20029;-80
2022/02/08 21:49:43;;;;;;;5.32;2.90;;;;;;;;;;6132075;23;20029;-80
2022/02/08 21:54:47;;;;;;;3.75;3.45;;;;;;;;;;6148441;23;20021;-81
2022/02/08 21:57:19;;;;;;;4.22;3.30;;;;;;;;;;6148482;23;20041;-80
2022/02/08 21:59:47;;;;;;;4.45;4.05;;;;;;;;;;6097255;23;20029;-80
2022/02/08 22:02:16;;;;;;;3.47;2.63;;;;;;;;;;6098506;23;20029;-81
2022/02/08 22:04:45;;;;;;;7.55;3.78;;;;;;;;;;6121465;23;20052;-80
2022/02/08 22:07:15;;;;;;;4.90;3.45;;;;;;;;;;6097467;23;20025;-80
2022/02/08 22:09:55;;;;;;;3.60;2.33;;;;;;;;;;6098382;23;20037;-81
2022/02/08 22:21:03;;;;;;;3.60;3.03;;;;;;;;;;6148098;23;20025;-80
2022/02/08 22:23:35;;;;;;;3.90;2.35;;;;;;;;;;6105662;23;20350;-81
2022/02/08 22:31:37;;;;;;;3.10;2.60;;;;;;;;;;6121494;23;20025;-80
2022/02/08 22:36:50;;;;;;;3.28;2.92;;;;;;;;;;6121616;23;20025;-80
2022/02/08 22:39:27;;;;;;;3.15;2.83;;;;;;;;;;6155966;23;20013;-81
2022/02/08 22:42:20;;;;;;;2.95;2.47;;;;;;;;;;6132736;23;20480;-80
2022/02/08 22:44:51;;;;;;;2.65;2.53;;;;;;;;;;6149380;23;20357;-81
2022/02/08 22:47:19;;;;;;;7.53;3.63;;;;;;;;;;6156952;23;20021;-81
2022/02/08 22:49:49;;;;;;;3.40;3.10;;;;;;;;;;6098301;23;20028;-87
2022/02/08 22:52:18;;;;;;;3.15;2.92;;;;;;;;;;6152733;23;20027;-87
2022/02/08 22:54:46;;;;;;;7.25;3.25;;;;;;;;;;6132341;23;20321;-87
2022/02/08 22:57:15;;;;;;;3.15;2.63;;;;;;;;;;6147828;23;20041;-87
2022/02/08 22:59:44;;;;;;;4.60;3.80;;;;;;;;;;6095743;23;20021;-87
2022/02/08 23:02:16;;;;;;;4.50;3.10;;;;;;;;;;6148472;23;20027;-87
2022/02/08 23:04:49;;;;;;;4.50;3.75;;;;;;;;;;6150370;23;20026;-87
2022/02/08 23:07:22;;;;;;;4.07;2.78;;;;;;;;;;6120848;23;20028;-86
2022/02/08 23:10:01;;;;;;;2.80;2.53;;;;;;;;;;6121044;23;20029;-86
2022/02/08 23:37:10;;;;;;;3.53;3.30;;;;;;;;;;6121023;23;20052;-87
2022/02/08 23:39:39;;;;;;;2.13;1.98;;;;;;;;;;6096558;23;20032;-87
2022/02/08 23:42:09;;;;;;;3.97;1.83;;;;;;;;;;6132257;23;20028;-87
2022/02/08 23:44:40;;;;;;;5.10;2.95;;;;;;;;;;6120523;23;20026;-86
2022/02/08 23:47:13;;;;;;;1.95;1.85;;;;;;;;;;6156600;23;20021;-87
2022/02/08 23:49:46;;;;;;;2.67;2.47;;;;;;;;;;6157298;23;20048;-87
2022/02/08 23:52:28;;;;;;;3.03;2.75;;;;;;;;;;6120826;23;20357;-87
2022/02/08 23:55:00;;;;;;;3.00;2.42;;;;;;;;;;6121112;23;20022;-87
2022/02/08 23:57:31;;;;;;;4.10;3.50;;;;;;;;;;6157958;23;20513;-87
